sensor_id;sensor_type;location;lat;lon;timestamp;pressure;altitude;pressure_sealevel;temperature;humidity
65872;BME280;52653;50.080;21.992;2023-10-09T00:00:36;99957.42;;;3.29;87.23
65872;BME280;52653;50.080;21.992;2023-10-09T00:03:42;99955.83;;;3.33;87.53
65872;BME280;52653;50.080;21.992;2023-10-09T00:06:15;99955.48;;;3.38;87.47
65872;BME280;52653;50.080;21.992;2023-10-09T00:08:57;99950.02;;;3.36;87.83
65872;BME280;52653;50.080;21.992;2023-10-09T00:11:42;99943.92;;;3.40;87.58
65872;BME280;52653;50.080;21.992;2023-10-09T00:14:15;99947.85;;;3.43;87.63
65872;BME280;52653;50.080;21.992;2023-10-09T00:16:50;99951.59;;;3.42;88.05
65872;BME280;52653;50.080;21.992;2023-10-09T00:19:27;99954.15;;;3.45;88.19
65872;BME280;52653;50.080;21.992;2023-10-09T00:22:02;99956.45;;;3.46;88.37
65872;BME280;52653;50.080;21.992;2023-10-09T00:24:42;99964.34;;;3.49;88.36
65872;BME280;52653;50.080;21.992;2023-10-09T00:27:17;99968.38;;;3.50;88.31
65872;BME280;52653;50.080;21.992;2023-10-09T00:29:55;99968.83;;;3.48;88.72
65872;BME280;52653;50.080;21.992;2023-10-09T00:32:33;99964.30;;;3.48;88.65
65872;BME280;52653;50.080;21.992;2023-10-09T00:35:09;99954.91;;;3.47;88.74
65872;BME280;52653;50.080;21.992;2023-10-09T00:38:01;99953.34;;;3.46;88.69
65872;BME280;52653;50.080;21.992;2023-10-09T00:40:42;99951.90;;;3.45;88.62
65872;BME280;52653;50.080;21.992;2023-10-09T00:43:18;99958.15;;;3.45;88.53
65872;BME280;52653;50.080;21.992;2023-10-09T00:45:50;99952.65;;;3.42;88.20
65872;BME280;52653;50.080;21.992;2023-10-09T00:48:25;99951.50;;;3.39;88.08
65872;BME280;52653;50.080;21.992;2023-10-09T00:51:04;99954.00;;;3.35;88.11
65872;BME280;52653;50.080;21.992;2023-10-09T00:53:39;99947.98;;;3.32;88.10
65872;BME280;52653;50.080;21.992;2023-10-09T00:56:12;99947.56;;;3.30;88.22
65872;BME280;52653;50.080;21.992;2023-10-09T00:58:59;99944.34;;;3.21;88.12
65872;BME280;52653;50.080;21.992;2023-10-09T01:01:40;99950.33;;;3.14;88.35
65872;BME280;52653;50.080;21.992;2023-10-09T01:04:16;99953.08;;;3.08;88.37
65872;BME280;52653;50.080;21.992;2023-10-09T01:06:50;99953.35;;;3.01;88.70
65872;BME280;52653;50.080;21.992;2023-10-09T01:09:37;99953.61;;;2.98;88.74
65872;BME280;52653;50.080;21.992;2023-10-09T01:12:14;99956.29;;;2.91;88.89
65872;BME280;52653;50.080;21.992;2023-10-09T01:14:53;99942.83;;;2.87;89.22
65872;BME280;52653;50.080;21.992;2023-10-09T01:17:31;99928.40;;;2.86;89.01
65872;BME280;52653;50.080;21.992;2023-10-09T01:20:11;99923.40;;;2.86;88.87
65872;BME280;52653;50.080;21.992;2023-10-09T01:25:34;99943.06;;;2.79;88.93
65872;BME280;52653;50.080;21.992;2023-10-09T01:28:15;99946.05;;;2.76;88.99
65872;BME280;52653;50.080;21.992;2023-10-09T01:30:47;99952.02;;;2.72;89.09
65872;BME280;52653;50.080;21.992;2023-10-09T01:33:22;99946.86;;;2.69;89.07
65872;BME280;52653;50.080;21.992;2023-10-09T01:36:01;99942.92;;;2.65;89.09
65872;BME280;52653;50.080;21.992;2023-10-09T01:38:34;99942.27;;;2.61;89.31
65872;BME280;52653;50.080;21.992;2023-10-09T01:41:14;99940.39;;;2.57;89.61
65872;BME280;52653;50.080;21.992;2023-10-09T01:43:49;99939.21;;;2.54;89.58
65872;BME280;52653;50.080;21.992;2023-10-09T01:46:28;99938.92;;;2.50;89.71
65872;BME280;52653;50.080;21.992;2023-10-09T01:49:04;99936.02;;;2.47;89.70
65872;BME280;52653;50.080;21.992;2023-10-09T01:51:42;99938.21;;;2.45;89.78
65872;BME280;52653;50.080;21.992;2023-10-09T01:54:14;99933.22;;;2.41;89.81
65872;BME280;52653;50.080;21.992;2023-10-09T01:57:07;99934.67;;;2.39;89.47
65872;BME280;52653;50.080;21.992;2023-10-09T01:59:43;99927.11;;;2.35;89.51
65872;BME280;52653;50.080;21.992;2023-10-09T02:02:31;99916.67;;;2.28;89.50
65872;BME280;52653;50.080;21.992;2023-10-09T02:05:10;99909.83;;;2.21;89.71
65872;BME280;52653;50.080;21.992;2023-10-09T02:07:55;99906.09;;;2.19;89.50
65872;BME280;52653;50.080;21.992;2023-10-09T02:10:30;99908.01;;;2.15;89.58
65872;BME280;52653;50.080;21.992;2023-10-09T02:13:09;99910.09;;;2.10;89.52
65872;BME280;52653;50.080;21.992;2023-10-09T02:15:41;99902.23;;;2.08;89.87
65872;BME280;52653;50.080;21.992;2023-10-09T02:18:23;99902.39;;;2.07;89.67
65872;BME280;52653;50.080;21.992;2023-10-09T02:21:14;99907.50;;;2.05;89.62
65872;BME280;52653;50.080;21.992;2023-10-09T02:23:52;99902.46;;;2.00;89.89
65872;BME280;52653;50.080;21.992;2023-10-09T02:26:28;99903.66;;;2.00;89.99
65872;BME280;52653;50.080;21.992;2023-10-09T02:29:19;99899.81;;;1.99;90.07
65872;BME280;52653;50.080;21.992;2023-10-09T02:31:58;99897.64;;;1.96;90.25
65872;BME280;52653;50.080;21.992;2023-10-09T02:34:44;99893.27;;;1.95;90.22
65872;BME280;52653;50.080;21.992;2023-10-09T02:37:18;99888.52;;;1.93;90.27
65872;BME280;52653;50.080;21.992;2023-10-09T02:39:57;99889.24;;;1.89;90.17
65872;BME280;52653;50.080;21.992;2023-10-09T02:42:35;99897.63;;;1.87;90.18
65872;BME280;52653;50.080;21.992;2023-10-09T02:45:14;99898.09;;;1.85;90.59
65872;BME280;52653;50.080;21.992;2023-10-09T02:47:55;99889.39;;;1.84;90.66
65872;BME280;52653;50.080;21.992;2023-10-09T02:50:35;99880.97;;;1.76;90.96
65872;BME280;52653;50.080;21.992;2023-10-09T02:53:12;99883.13;;;1.78;91.02
65872;BME280;52653;50.080;21.992;2023-10-09T02:56:00;99877.45;;;1.74;91.12
65872;BME280;52653;50.080;21.992;2023-10-09T02:58:43;99879.26;;;1.72;91.19
65872;BME280;52653;50.080;21.992;2023-10-09T03:01:19;99877.34;;;1.71;91.26
65872;BME280;52653;50.080;21.992;2023-10-09T03:03:54;99878.36;;;1.76;91.15
65872;BME280;52653;50.080;21.992;2023-10-09T03:06:36;99874.09;;;1.77;91.01
65872;BME280;52653;50.080;21.992;2023-10-09T03:09:17;99879.10;;;1.77;91.18
65872;BME280;52653;50.080;21.992;2023-10-09T03:11:50;99886.79;;;1.75;91.06
65872;BME280;52653;50.080;21.992;2023-10-09T03:14:25;99888.51;;;1.74;90.90
65872;BME280;52653;50.080;21.992;2023-10-09T03:16:59;99883.99;;;1.74;90.88
65872;BME280;52653;50.080;21.992;2023-10-09T03:19:32;99882.62;;;1.74;90.84
65872;BME280;52653;50.080;21.992;2023-10-09T03:22:09;99879.66;;;1.73;90.93
65872;BME280;52653;50.080;21.992;2023-10-09T03:24:43;99878.80;;;1.74;91.13
65872;BME280;52653;50.080;21.992;2023-10-09T03:27:22;99873.63;;;1.74;91.13
65872;BME280;52653;50.080;21.992;2023-10-09T03:29:54;99880.89;;;1.74;91.43
65872;BME280;52653;50.080;21.992;2023-10-09T03:32:27;99881.61;;;1.75;91.50
65872;BME280;52653;50.080;21.992;2023-10-09T03:35:00;99878.94;;;1.77;91.63
65872;BME280;52653;50.080;21.992;2023-10-09T03:37:35;99875.95;;;1.81;91.81
65872;BME280;52653;50.080;21.992;2023-10-09T03:40:12;99876.59;;;1.84;92.13
65872;BME280;52653;50.080;21.992;2023-10-09T03:42:47;99868.77;;;1.88;92.14
65872;BME280;52653;50.080;21.992;2023-10-09T03:45:20;99861.84;;;1.92;92.34
65872;BME280;52653;50.080;21.992;2023-10-09T03:48:02;99858.52;;;1.95;92.54
65872;BME280;52653;50.080;21.992;2023-10-09T03:50:42;99854.14;;;1.99;92.47
65872;BME280;52653;50.080;21.992;2023-10-09T03:53:16;99851.30;;;2.01;92.60
65872;BME280;52653;50.080;21.992;2023-10-09T03:55:50;99845.23;;;2.05;92.56
65872;BME280;52653;50.080;21.992;2023-10-09T03:58:26;99838.62;;;2.10;92.43
65872;BME280;52653;50.080;21.992;2023-10-09T04:01:08;99831.14;;;2.13;92.38
65872;BME280;52653;50.080;21.992;2023-10-09T04:03:48;99823.66;;;2.17;92.46
65872;BME280;52653;50.080;21.992;2023-10-09T04:06:20;99826.86;;;2.19;92.43
65872;BME280;52653;50.080;21.992;2023-10-09T04:08:56;99823.29;;;2.21;92.22
65872;BME280;52653;50.080;21.992;2023-10-09T04:11:33;99819.69;;;2.22;92.36
65872;BME280;52653;50.080;21.992;2023-10-09T04:14:15;99820.41;;;2.23;92.25
65872;BME280;52653;50.080;21.992;2023-10-09T04:16:55;99825.27;;;2.23;92.40
65872;BME280;52653;50.080;21.992;2023-10-09T04:19:35;99831.36;;;2.24;92.35
65872;BME280;52653;50.080;21.992;2023-10-09T04:22:21;99827.92;;;2.25;92.31
65872;BME280;52653;50.080;21.992;2023-10-09T04:24:58;99825.02;;;2.26;92.51
65872;BME280;52653;50.080;21.992;2023-10-09T04:27:30;99823.99;;;2.26;92.49
65872;BME280;52653;50.080;21.992;2023-10-09T04:30:10;99828.89;;;2.28;92.42
65872;BME280;52653;50.080;21.992;2023-10-09T04:32:46;99831.41;;;2.30;92.48
65872;BME280;52653;50.080;21.992;2023-10-09T04:35:20;99833.05;;;2.32;92.60
65872;BME280;52653;50.080;21.992;2023-10-09T04:37:56;99832.64;;;2.36;92.76
65872;BME280;52653;50.080;21.992;2023-10-09T04:40:36;99829.84;;;2.40;92.86
65872;BME280;52653;50.080;21.992;2023-10-09T04:43:23;99830.73;;;2.46;92.92
65872;BME280;52653;50.080;21.992;2023-10-09T04:45:59;99826.70;;;2.50;92.90
65872;BME280;52653;50.080;21.992;2023-10-09T04:48:42;99812.46;;;2.53;92.96
65872;BME280;52653;50.080;21.992;2023-10-09T04:51:17;99810.54;;;2.57;93.00
65872;BME280;52653;50.080;21.992;2023-10-09T04:53:53;99807.19;;;2.61;92.92
65872;BME280;52653;50.080;21.992;2023-10-09T04:56:44;99810.98;;;2.66;92.84
65872;BME280;52653;50.080;21.992;2023-10-09T04:59:26;99812.34;;;2.70;92.91
65872;BME280;52653;50.080;21.992;2023-10-09T05:01:59;99813.14;;;2.74;92.95
65872;BME280;52653;50.080;21.992;2023-10-09T05:04:36;99814.69;;;2.78;93.09
65872;BME280;52653;50.080;21.992;2023-10-09T05:07:12;99817.12;;;2.83;93.05
65872;BME280;52653;50.080;21.992;2023-10-09T05:10:18;99817.53;;;2.90;92.90
65872;BME280;52653;50.080;21.992;2023-10-09T05:12:55;99813.20;;;2.96;93.03
65872;BME280;52653;50.080;21.992;2023-10-09T05:15:29;99812.67;;;3.02;93.08
65872;BME280;52653;50.080;21.992;2023-10-09T05:18:10;99809.75;;;3.08;93.00
65872;BME280;52653;50.080;21.992;2023-10-09T05:20:49;99811.34;;;3.14;92.77
65872;BME280;52653;50.080;21.992;2023-10-09T05:23:52;99816.13;;;3.23;92.87
65872;BME280;52653;50.080;21.992;2023-10-09T05:26:38;99817.61;;;3.32;92.76
65872;BME280;52653;50.080;21.992;2023-10-09T05:29:23;99811.98;;;3.40;92.45
65872;BME280;52653;50.080;21.992;2023-10-09T05:32:21;99807.40;;;3.49;92.59
65872;BME280;52653;50.080;21.992;2023-10-09T05:35:01;99809.05;;;3.58;92.31
65872;BME280;52653;50.080;21.992;2023-10-09T05:37:46;99808.32;;;3.69;92.31
65872;BME280;52653;50.080;21.992;2023-10-09T05:40:32;99804.69;;;3.81;92.13
65872;BME280;52653;50.080;21.992;2023-10-09T05:43:06;99803.45;;;3.92;91.83
65872;BME280;52653;50.080;21.992;2023-10-09T05:46:01;99803.58;;;4.03;91.85
65872;BME280;52653;50.080;21.992;2023-10-09T05:48:41;99798.48;;;4.12;91.61
65872;BME280;52653;50.080;21.992;2023-10-09T05:51:42;99799.59;;;4.22;91.37
65872;BME280;52653;50.080;21.992;2023-10-09T05:54:17;99795.15;;;4.31;91.14
65872;BME280;52653;50.080;21.992;2023-10-09T05:57:07;99793.67;;;4.41;90.87
65872;BME280;52653;50.080;21.992;2023-10-09T05:59:57;99802.08;;;4.50;90.59
65872;BME280;52653;50.080;21.992;2023-10-09T06:02:47;99804.02;;;4.57;90.39
65872;BME280;52653;50.080;21.992;2023-10-09T06:05:46;99806.45;;;4.65;90.00
65872;BME280;52653;50.080;21.992;2023-10-09T06:08:33;99802.49;;;4.73;89.74
65872;BME280;52653;50.080;21.992;2023-10-09T06:11:32;99791.24;;;4.82;89.49
65872;BME280;52653;50.080;21.992;2023-10-09T06:14:21;99785.91;;;4.91;89.22
65872;BME280;52653;50.080;21.992;2023-10-09T06:17:20;99780.59;;;5.01;88.98
65872;BME280;52653;50.080;21.992;2023-10-09T06:19:57;99779.77;;;5.10;88.75
65872;BME280;52653;50.080;21.992;2023-10-09T06:22:56;99770.73;;;5.18;88.22
65872;BME280;52653;50.080;21.992;2023-10-09T06:25:29;99763.41;;;5.25;88.09
65872;BME280;52653;50.080;21.992;2023-10-09T06:28:05;99751.94;;;5.33;87.97
65872;BME280;52653;50.080;21.992;2023-10-09T06:30:40;99741.83;;;5.41;87.55
65872;BME280;52653;50.080;21.992;2023-10-09T06:33:17;99731.94;;;5.49;87.38
65872;BME280;52653;50.080;21.992;2023-10-09T06:36:01;99717.50;;;5.58;87.20
65872;BME280;52653;50.080;21.992;2023-10-09T06:38:40;99702.67;;;5.65;86.54
65872;BME280;52653;50.080;21.992;2023-10-09T06:41:44;99695.98;;;5.71;86.22
65872;BME280;52653;50.080;21.992;2023-10-09T06:44:37;99703.27;;;5.78;86.04
65872;BME280;52653;50.080;21.992;2023-10-09T06:47:32;99702.06;;;5.87;86.06
65872;BME280;52653;50.080;21.992;2023-10-09T06:50:17;99697.27;;;5.99;85.68
65872;BME280;52653;50.080;21.992;2023-10-09T06:53:18;99694.62;;;6.07;85.00
65872;BME280;52653;50.080;21.992;2023-10-09T06:56:00;99693.21;;;6.15;84.49
65872;BME280;52653;50.080;21.992;2023-10-09T06:58:37;99689.19;;;6.23;83.91
65872;BME280;52653;50.080;21.992;2023-10-09T07:01:14;99687.89;;;6.30;83.75
65872;BME280;52653;50.080;21.992;2023-10-09T07:03:57;99693.11;;;6.40;83.58
65872;BME280;52653;50.080;21.992;2023-10-09T07:06:42;99693.77;;;6.48;83.35
65872;BME280;52653;50.080;21.992;2023-10-09T07:09:22;99696.70;;;6.56;82.66
65872;BME280;52653;50.080;21.992;2023-10-09T07:11:59;99693.14;;;6.63;82.37
65872;BME280;52653;50.080;21.992;2023-10-09T07:14:41;99690.66;;;6.71;82.21
65872;BME280;52653;50.080;21.992;2023-10-09T07:17:31;99698.33;;;6.82;82.26
65872;BME280;52653;50.080;21.992;2023-10-09T07:20:18;99696.88;;;6.90;81.37
65872;BME280;52653;50.080;21.992;2023-10-09T07:23:04;99696.04;;;6.93;80.57
65872;BME280;52653;50.080;21.992;2023-10-09T07:25:46;99692.48;;;7.00;80.60
65872;BME280;52653;50.080;21.992;2023-10-09T07:28:35;99693.61;;;7.06;80.29
65872;BME280;52653;50.080;21.992;2023-10-09T07:31:23;99693.54;;;7.12;80.19
65872;BME280;52653;50.080;21.992;2023-10-09T07:34:01;99681.92;;;7.18;79.91
65872;BME280;52653;50.080;21.992;2023-10-09T07:36:39;99679.73;;;7.24;79.51
65872;BME280;52653;50.080;21.992;2023-10-09T07:39:19;99684.52;;;7.29;79.23
65872;BME280;52653;50.080;21.992;2023-10-09T07:41:54;99683.39;;;7.37;79.12
65872;BME280;52653;50.080;21.992;2023-10-09T07:44:34;99678.95;;;7.45;78.66
65872;BME280;52653;50.080;21.992;2023-10-09T07:47:09;99682.54;;;7.52;78.45
65872;BME280;52653;50.080;21.992;2023-10-09T07:49:54;99681.80;;;7.63;78.35
65872;BME280;52653;50.080;21.992;2023-10-09T07:52:30;99685.73;;;7.73;77.80
65872;BME280;52653;50.080;21.992;2023-10-09T07:55:03;99678.51;;;7.81;77.79
65872;BME280;52653;50.080;21.992;2023-10-09T07:57:38;99680.02;;;7.93;77.74
65872;BME280;52653;50.080;21.992;2023-10-09T08:00:14;99672.42;;;8.01;76.88
65872;BME280;52653;50.080;21.992;2023-10-09T08:03:05;99671.40;;;8.04;76.01
65872;BME280;52653;50.080;21.992;2023-10-09T08:05:56;99672.15;;;8.09;76.17
65872;BME280;52653;50.080;21.992;2023-10-09T08:08:38;99671.52;;;8.15;76.18
65872;BME280;52653;50.080;21.992;2023-10-09T08:11:34;99667.20;;;8.22;75.72
65872;BME280;52653;50.080;21.992;2023-10-09T08:14:37;99668.67;;;8.29;75.51
65872;BME280;52653;50.080;21.992;2023-10-09T08:17:17;99673.66;;;8.38;75.47
65872;BME280;52653;50.080;21.992;2023-10-09T08:20:14;99670.40;;;8.44;74.86
65872;BME280;52653;50.080;21.992;2023-10-09T08:22:53;99666.40;;;8.47;74.81
65872;BME280;52653;50.080;21.992;2023-10-09T08:25:30;99657.15;;;8.50;74.31
65872;BME280;52653;50.080;21.992;2023-10-09T08:28:24;99656.45;;;8.50;74.32
65872;BME280;52653;50.080;21.992;2023-10-09T08:31:24;99654.57;;;8.53;74.15
65872;BME280;52653;50.080;21.992;2023-10-09T08:34:16;99655.29;;;8.54;74.03
65872;BME280;52653;50.080;21.992;2023-10-09T08:37:03;99649.17;;;8.57;73.63
65872;BME280;52653;50.080;21.992;2023-10-09T08:39:37;99650.77;;;8.57;73.46
65872;BME280;52653;50.080;21.992;2023-10-09T08:42:23;99647.80;;;8.61;73.50
65872;BME280;52653;50.080;21.992;2023-10-09T08:45:00;99645.73;;;8.64;72.94
65872;BME280;52653;50.080;21.992;2023-10-09T08:47:39;99643.67;;;8.68;72.87
65872;BME280;52653;50.080;21.992;2023-10-09T08:50:12;99651.55;;;8.74;72.73
65872;BME280;52653;50.080;21.992;2023-10-09T08:52:46;99651.45;;;8.83;72.92
65872;BME280;52653;50.080;21.992;2023-10-09T08:55:29;99657.84;;;8.97;72.58
65872;BME280;52653;50.080;21.992;2023-10-09T08:58:05;99657.73;;;9.07;71.56
65872;BME280;52653;50.080;21.992;2023-10-09T09:00:44;99656.06;;;9.26;71.16
65872;BME280;52653;50.080;21.992;2023-10-09T09:03:21;99659.48;;;9.48;70.28
65872;BME280;52653;50.080;21.992;2023-10-09T09:06:04;99657.66;;;9.74;70.21
65872;BME280;52653;50.080;21.992;2023-10-09T09:08:37;99654.57;;;10.07;69.95
65872;BME280;52653;50.080;21.992;2023-10-09T09:11:12;99643.76;;;10.39;68.54
65872;BME280;52653;50.080;21.992;2023-10-09T09:14:01;99638.84;;;10.69;67.71
65872;BME280;52653;50.080;21.992;2023-10-09T09:16:42;99628.75;;;11.05;67.59
65872;BME280;52653;50.080;21.992;2023-10-09T09:19:19;99632.53;;;11.33;66.12
65872;BME280;52653;50.080;21.992;2023-10-09T09:22:06;99634.04;;;11.51;64.96
65872;BME280;52653;50.080;21.992;2023-10-09T09:24:58;99627.98;;;11.63;64.62
65872;BME280;52653;50.080;21.992;2023-10-09T09:27:47;99618.29;;;11.72;63.68
65872;BME280;52653;50.080;21.992;2023-10-09T09:30:28;99611.97;;;11.67;62.92
65872;BME280;52653;50.080;21.992;2023-10-09T09:33:18;99609.88;;;11.68;62.12
65872;BME280;52653;50.080;21.992;2023-10-09T09:36:08;99615.72;;;11.59;61.29
65872;BME280;52653;50.080;21.992;2023-10-09T09:38:45;99615.77;;;11.45;61.27
65872;BME280;52653;50.080;21.992;2023-10-09T09:41:25;99613.88;;;11.41;61.42
65872;BME280;52653;50.080;21.992;2023-10-09T09:43:59;99611.96;;;11.36;61.90
65872;BME280;52653;50.080;21.992;2023-10-09T09:46:42;99606.02;;;11.33;62.16
65872;BME280;52653;50.080;21.992;2023-10-09T09:49:19;99603.04;;;11.29;62.47
65872;BME280;52653;50.080;21.992;2023-10-09T09:51:56;99600.77;;;11.24;62.05
65872;BME280;52653;50.080;21.992;2023-10-09T09:54:29;99596.95;;;11.16;61.89
65872;BME280;52653;50.080;21.992;2023-10-09T09:57:11;99590.48;;;11.10;62.07
65872;BME280;52653;50.080;21.992;2023-10-09T09:59:54;99592.58;;;11.10;62.47
65872;BME280;52653;50.080;21.992;2023-10-09T10:02:32;99596.59;;;11.14;62.89
65872;BME280;52653;50.080;21.992;2023-10-09T10:05:14;99592.73;;;11.15;62.67
65872;BME280;52653;50.080;21.992;2023-10-09T10:07:48;99588.02;;;11.09;62.13
65872;BME280;52653;50.080;21.992;2023-10-09T10:10:38;99588.05;;;11.00;62.63
65872;BME280;52653;50.080;21.992;2023-10-09T10:13:57;99579.66;;;10.86;62.09
65872;BME280;52653;50.080;21.992;2023-10-09T10:17:04;99583.92;;;10.69;62.10
65872;BME280;52653;50.080;21.992;2023-10-09T10:20:07;99576.58;;;10.57;62.78
65872;BME280;52653;50.080;21.992;2023-10-09T10:23:17;99576.06;;;10.54;63.18
65872;BME280;52653;50.080;21.992;2023-10-09T10:25:52;99572.02;;;10.57;63.02
65872;BME280;52653;50.080;21.992;2023-10-09T10:28:32;99571.49;;;10.54;62.31
65872;BME280;52653;50.080;21.992;2023-10-09T10:31:15;99570.11;;;10.47;62.16
65872;BME280;52653;50.080;21.992;2023-10-09T10:34:04;99570.98;;;10.51;63.14
65872;BME280;52653;50.080;21.992;2023-10-09T10:36:46;99588.86;;;10.58;61.94
65872;BME280;52653;50.080;21.992;2023-10-09T10:39:26;99588.33;;;10.59;62.01
65872;BME280;52653;50.080;21.992;2023-10-09T10:42:17;99582.55;;;10.58;61.70
65872;BME280;52653;50.080;21.992;2023-10-09T10:45:20;99589.38;;;10.64;62.79
65872;BME280;52653;50.080;21.992;2023-10-09T10:48:26;99591.84;;;10.59;63.75
65872;BME280;52653;50.080;21.992;2023-10-09T10:51:37;99593.42;;;10.53;64.11
65872;BME280;52653;50.080;21.992;2023-10-09T10:54:31;99580.30;;;10.36;64.02
65872;BME280;52653;50.080;21.992;2023-10-09T10:57:57;99561.00;;;10.27;65.43
65872;BME280;52653;50.080;21.992;2023-10-09T11:01:04;99560.30;;;10.28;65.75
65872;BME280;52653;50.080;21.992;2023-10-09T11:04:13;99558.20;;;10.24;65.27
65872;BME280;52653;50.080;21.992;2023-10-09T11:07:23;99556.79;;;10.11;65.89
65872;BME280;52653;50.080;21.992;2023-10-09T11:10:23;99546.80;;;10.06;66.99
65872;BME280;52653;50.080;21.992;2023-10-09T11:13:27;99548.38;;;10.06;67.67
65872;BME280;52653;50.080;21.992;2023-10-09T11:16:25;99539.78;;;10.08;67.54
65872;BME280;52653;50.080;21.992;2023-10-09T11:19:22;99529.09;;;10.08;66.37
65872;BME280;52653;50.080;21.992;2023-10-09T11:22:01;99524.02;;;10.08;66.57
65872;BME280;52653;50.080;21.992;2023-10-09T11:24:52;99522.97;;;10.07;66.26
65872;BME280;52653;50.080;21.992;2023-10-09T11:27:43;99527.69;;;10.03;65.78
65872;BME280;52653;50.080;21.992;2023-10-09T11:30:32;99522.42;;;10.02;65.32
65872;BME280;52653;50.080;21.992;2023-10-09T11:33:08;99520.85;;;10.02;64.50
65872;BME280;52653;50.080;21.992;2023-10-09T11:35:56;99512.09;;;10.11;65.19
65872;BME280;52653;50.080;21.992;2023-10-09T11:38:37;99505.61;;;10.20;63.96
65872;BME280;52653;50.080;21.992;2023-10-09T11:41:17;99500.36;;;10.24;63.10
65872;BME280;52653;50.080;21.992;2023-10-09T11:43:55;99497.88;;;10.35;62.99
65872;BME280;52653;50.080;21.992;2023-10-09T11:46:29;99493.64;;;10.47;63.10
65872;BME280;52653;50.080;21.992;2023-10-09T11:49:29;99488.88;;;10.59;63.10
65872;BME280;52653;50.080;21.992;2023-10-09T11:52:12;99476.55;;;10.71;63.62
65872;BME280;52653;50.080;21.992;2023-10-09T11:55:05;99468.77;;;10.88;63.80
65872;BME280;52653;50.080;21.992;2023-10-09T11:57:51;99454.98;;;11.05;63.44
65872;BME280;52653;50.080;21.992;2023-10-09T12:00:26;99443.34;;;11.14;62.45
65872;BME280;52653;50.080;21.992;2023-10-09T12:03:04;99435.59;;;11.18;62.26
65872;BME280;52653;50.080;21.992;2023-10-09T12:05:50;99428.17;;;11.26;62.90
65872;BME280;52653;50.080;21.992;2023-10-09T12:08:47;99422.61;;;11.39;62.57
65872;BME280;52653;50.080;21.992;2023-10-09T12:11:43;99427.50;;;11.42;62.25
65872;BME280;52653;50.080;21.992;2023-10-09T12:14:44;99420.80;;;11.47;62.48
65872;BME280;52653;50.080;21.992;2023-10-09T12:17:40;99407.20;;;11.56;62.28
65872;BME280;52653;50.080;21.992;2023-10-09T12:20:37;99394.61;;;11.69;62.02
65872;BME280;52653;50.080;21.992;2023-10-09T12:23:30;99392.58;;;11.84;61.74
65872;BME280;52653;50.080;21.992;2023-10-09T12:26:27;99389.66;;;11.94;60.76
65872;BME280;52653;50.080;21.992;2023-10-09T12:29:09;99388.90;;;12.00;60.32
65872;BME280;52653;50.080;21.992;2023-10-09T12:31:52;99391.73;;;11.98;59.49
65872;BME280;52653;50.080;21.992;2023-10-09T12:34:50;99391.58;;;11.96;59.91
65872;BME280;52653;50.080;21.992;2023-10-09T12:37:45;99388.11;;;11.91;60.05
65872;BME280;52653;50.080;21.992;2023-10-09T12:40:41;99379.00;;;11.88;60.50
65872;BME280;52653;50.080;21.992;2023-10-09T12:43:36;99379.00;;;11.88;60.13
65872;BME280;52653;50.080;21.992;2023-10-09T12:46:34;99375.54;;;11.84;59.67
65872;BME280;52653;50.080;21.992;2023-10-09T12:49:30;99376.82;;;11.74;59.95
65872;BME280;52653;50.080;21.992;2023-10-09T12:52:23;99369.73;;;11.63;60.20
65872;BME280;52653;50.080;21.992;2023-10-09T12:55:11;99360.00;;;11.51;60.04
65872;BME280;52653;50.080;21.992;2023-10-09T12:58:12;99352.02;;;11.39;60.44
65872;BME280;52653;50.080;21.992;2023-10-09T13:01:07;99352.52;;;11.24;60.06
65872;BME280;52653;50.080;21.992;2023-10-09T13:04:05;99345.62;;;11.06;60.35
65872;BME280;52653;50.080;21.992;2023-10-09T13:06:46;99345.02;;;10.92;60.55
65872;BME280;52653;50.080;21.992;2023-10-09T13:09:30;99355.98;;;10.79;60.93
65872;BME280;52653;50.080;21.992;2023-10-09T13:12:27;99359.30;;;10.78;61.74
65872;BME280;52653;50.080;21.992;2023-10-09T13:15:04;99365.80;;;10.81;62.16
65872;BME280;52653;50.080;21.992;2023-10-09T13:18:00;99366.46;;;10.87;62.27
65872;BME280;52653;50.080;21.992;2023-10-09T13:20:53;99371.17;;;10.91;62.68
65872;BME280;52653;50.080;21.992;2023-10-09T13:23:49;99363.79;;;10.94;62.63
65872;BME280;52653;50.080;21.992;2023-10-09T13:26:43;99359.74;;;10.95;62.56
65872;BME280;52653;50.080;21.992;2023-10-09T13:29:37;99362.14;;;11.04;62.79
65872;BME280;52653;50.080;21.992;2023-10-09T13:32:32;99361.44;;;11.05;62.14
65872;BME280;52653;50.080;21.992;2023-10-09T13:35:27;99357.73;;;11.03;62.43
65872;BME280;52653;50.080;21.992;2023-10-09T13:38:29;99363.20;;;11.01;62.93
65872;BME280;52653;50.080;21.992;2023-10-09T13:41:11;99360.80;;;10.91;62.50
65872;BME280;52653;50.080;21.992;2023-10-09T13:44:05;99363.17;;;10.81;63.04
65872;BME280;52653;50.080;21.992;2023-10-09T13:46:50;99365.38;;;10.64;62.81
65872;BME280;52653;50.080;21.992;2023-10-09T13:49:43;99366.88;;;10.44;63.55
65872;BME280;52653;50.080;21.992;2023-10-09T13:52:25;99362.38;;;10.33;64.15
65872;BME280;52653;50.080;21.992;2023-10-09T13:55:17;99355.55;;;10.22;64.86
65872;BME280;52653;50.080;21.992;2023-10-09T13:58:10;99354.52;;;10.11;65.48
65872;BME280;52653;50.080;21.992;2023-10-09T14:01:06;99350.90;;;9.98;66.08
65872;BME280;52653;50.080;21.992;2023-10-09T14:04:00;99351.79;;;9.88;66.48
65872;BME280;52653;50.080;21.992;2023-10-09T14:06:37;99357.59;;;9.84;66.85
65872;BME280;52653;50.080;21.992;2023-10-09T14:09:36;99363.38;;;9.81;67.44
65872;BME280;52653;50.080;21.992;2023-10-09T14:12:36;99361.30;;;9.71;67.92
65872;BME280;52653;50.080;21.992;2023-10-09T14:15:33;99362.71;;;9.67;68.31
65872;BME280;52653;50.080;21.992;2023-10-09T14:18:22;99355.69;;;9.65;68.89
65872;BME280;52653;50.080;21.992;2023-10-09T14:21:02;99355.70;;;9.62;68.85
65872;BME280;52653;50.080;21.992;2023-10-09T14:23:43;99352.56;;;9.56;69.16
65872;BME280;52653;50.080;21.992;2023-10-09T14:26:20;99347.30;;;9.52;69.36
65872;BME280;52653;50.080;21.992;2023-10-09T14:29:02;99343.80;;;9.49;69.77